Time;durP1;ratioP1;P1;durP2;ratioP2;P2;SDS_P1;SDS_P2;PMS_P1;PMS_P2;Temp;Humidity;BMP_temperature;BMP_pressure;BME280_temperature;BME280_humidity;BME280_pressure;Samples;Min_cycle;Max_cycle;Signal;HPM_P1;HPM_P2
2024/01/19 00:01:15;;;;;;;37.33;18.63;;;-3.30;99.90;;;;;;5053419;28;20028;-68
2024/01/19 00:03:40;;;;;;;36.63;18.50;;;-3.30;99.90;;;;;;5052955;28;20487;-68
2024/01/19 00:06:06;;;;;;;41.78;20.55;;;-3.30;99.90;;;;;;5053192;28;20025;-68
2024/01/19 00:08:31;;;;;;;34.88;19.55;;;-3.30;99.90;;;;;;5053200;28;20489;-68
2024/01/19 00:10:57;;;;;;;34.05;19.45;;;-3.20;99.90;;;;;;5053326;28;20032;-68
2024/01/19 00:13:22;;;;;;;37.92;20.30;;;-3.20;99.90;;;;;;5053165;28;20498;-68
2024/01/19 00:15:48;;;;;;;35.33;19.23;;;-3.30;99.90;;;;;;5053021;28;20029;-68
2024/01/19 00:18:13;;;;;;;39.45;21.30;;;-3.30;99.90;;;;;;5053180;28;20117;-68
2024/01/19 00:20:39;;;;;;;37.85;20.15;;;-3.30;99.90;;;;;;5053129;28;20033;-68
2024/01/19 00:23:04;;;;;;;36.78;19.90;;;-3.30;99.90;;;;;;5052639;28;20376;-68
2024/01/19 00:25:30;;;;;;;44.88;23.13;;;-3.30;99.90;;;;;;5053099;28;20029;-68
2024/01/19 00:27:55;;;;;;;35.95;20.38;;;-3.30;99.90;;;;;;5052694;28;20021;-68
2024/01/19 00:30:21;;;;;;;37.60;21.80;;;-3.30;99.90;;;;;;5052848;28;20032;-68
2024/01/19 00:32:46;;;;;;;42.97;22.35;;;-3.30;99.90;;;;;;5052903;28;20025;-68
2024/01/19 00:35:12;;;;;;;41.90;22.35;;;-3.30;99.90;;;;;;5053054;28;20033;-68
2024/01/19 00:37:38;;;;;;;42.40;22.73;;;-3.30;99.90;;;;;;5052646;28;20116;-68
2024/01/19 00:40:11;;;;;;;48.40;22.98;;;-3.30;99.90;;;;;;5052929;28;20063;-68
2024/01/19 00:42:38;;;;;;;44.75;23.63;;;-3.20;99.90;;;;;;5052409;28;20033;-68
2024/01/19 00:45:05;;;;;;;50.67;24.45;;;-3.20;99.90;;;;;;5052701;28;20056;-68
2024/01/19 00:47:32;;;;;;;50.60;26.85;;;-3.20;99.90;;;;;;5052853;28;20025;-68
2024/01/19 00:49:58;;;;;;;51.50;27.02;;;-3.00;99.90;;;;;;5052964;28;20052;-68
2024/01/19 00:52:23;;;;;;;53.85;28.30;;;-2.60;99.90;;;;;;5052727;28;20072;-68
2024/01/19 00:54:49;;;;;;;50.22;28.08;;;-2.70;99.90;;;;;;5052330;28;20036;-68
2024/01/19 00:57:14;;;;;;;50.97;26.15;;;-2.60;99.90;;;;;;5052667;28;20059;-68
2024/01/19 00:59:40;;;;;;;54.05;29.02;;;-2.60;99.90;;;;;;5052709;28;20029;-68
2024/01/19 01:02:05;;;;;;;56.13;28.98;;;-2.50;99.90;;;;;;5053541;28;20092;-67
2024/01/19 01:04:31;;;;;;;64.35;30.55;;;-2.40;99.90;;;;;;5056428;28;20057;-68
2024/01/19 01:06:56;;;;;;;63.78;31.25;;;-2.20;99.90;;;;;;5056657;28;20538;-68
2024/01/19 01:09:22;;;;;;;61.22;32.75;;;-2.20;99.90;;;;;;5056403;28;20029;-68
2024/01/19 01:11:47;;;;;;;67.15;33.75;;;-2.00;99.90;;;;;;5056260;28;20078;-67
2024/01/19 01:14:15;;;;;;;70.60;35.40;;;-2.00;99.90;;;;;;5056370;28;20372;-68
2024/01/19 01:16:41;;;;;;;67.43;35.97;;;-2.00;99.90;;;;;;5056131;28;20031;-68
2024/01/19 01:19:06;;;;;;;65.43;33.90;;;-1.90;99.90;;;;;;5056064;28;20055;-67
2024/01/19 01:21:32;;;;;;;66.50;35.38;;;-2.00;99.90;;;;;;5056223;28;20078;-67
2024/01/19 01:23:57;;;;;;;64.90;34.30;;;-2.10;99.90;;;;;;5055649;28;20029;-68
2024/01/19 01:26:23;;;;;;;63.92;35.10;;;-2.10;99.90;;;;;;5055811;28;20044;-67
2024/01/19 01:28:48;;;;;;;64.53;35.25;;;-2.10;99.90;;;;;;5056093;28;20033;-68
2024/01/19 01:31:14;;;;;;;74.63;37.88;;;-2.10;99.90;;;;;;5055989;28;20453;-68
2024/01/19 01:33:39;;;;;;;71.47;37.95;;;-2.00;99.90;;;;;;5056034;28;20025;-68
2024/01/19 01:36:05;;;;;;;62.90;36.50;;;-2.00;99.90;;;;;;5055927;28;20501;-68
2024/01/19 01:38:31;;;;;;;72.03;36.92;;;-2.00;99.90;;;;;;5056006;28;20104;-68
2024/01/19 01:40:56;;;;;;;76.78;37.22;;;-2.00;99.90;;;;;;5055844;28;20417;-68
2024/01/19 01:43:23;;;;;;;75.05;37.45;;;-2.10;99.90;;;;;;5055651;28;20456;-67
2024/01/19 01:45:50;;;;;;;73.68;36.60;;;-2.10;99.90;;;;;;5055816;28;20033;-67
2024/01/19 01:48:15;;;;;;;72.47;37.30;;;-2.10;99.90;;;;;;5055858;28;20489;-67
2024/01/19 01:50:41;;;;;;;68.88;38.33;;;-2.00;99.90;;;;;;5055765;28;20060;-67
2024/01/19 01:53:07;;;;;;;73.38;38.35;;;-2.00;99.90;;;;;;5055459;28;20113;-67
2024/01/19 01:55:33;;;;;;;69.95;37.88;;;-2.00;99.90;;;;;;5055768;28;20044;-67
2024/01/19 01:57:58;;;;;;;79.32;36.78;;;-2.00;99.90;;;;;;5055535;28;20029;-67
2024/01/19 02:00:25;;;;;;;80.15;37.55;;;-2.10;99.90;;;;;;5055486;28;20025;-67
2024/01/19 02:02:51;;;;;;;80.50;40.58;;;-2.10;99.90;;;;;;5054729;28;20045;-67
2024/01/19 02:05:17;;;;;;;86.57;43.78;;;-2.00;99.90;;;;;;5055098;28;20026;-67
2024/01/19 02:07:42;;;;;;;85.40;43.65;;;-1.90;99.90;;;;;;5055313;28;20032;-67
2024/01/19 02:10:09;;;;;;;83.35;41.33;;;-1.90;99.90;;;;;;5055244;28;20021;-67
2024/01/19 02:12:35;;;;;;;86.85;42.83;;;-1.80;99.90;;;;;;5054859;28;20051;-67
2024/01/19 02:15:01;;;;;;;76.43;41.53;;;-1.80;99.90;;;;;;5054736;28;20124;-67
2024/01/19 02:17:26;;;;;;;83.80;41.67;;;-1.80;99.90;;;;;;5055005;28;20124;-66
2024/01/19 02:19:53;;;;;;;86.43;41.90;;;-1.70;99.90;;;;;;5055108;28;20398;-67
2024/01/19 02:22:20;;;;;;;87.65;43.35;;;-1.70;99.90;;;;;;5055016;28;20028;-66
2024/01/19 02:24:45;;;;;;;77.90;41.60;;;-1.60;99.90;;;;;;5054661;28;20426;-68
2024/01/19 02:27:11;;;;;;;74.97;39.80;;;-1.60;99.90;;;;;;5054996;28;20033;-67
2024/01/19 02:29:37;;;;;;;84.95;40.17;;;-1.60;99.90;;;;;;5054804;28;20071;-67
2024/01/19 02:32:03;;;;;;;82.50;41.03;;;-1.60;99.90;;;;;;5054925;28;20064;-67
2024/01/19 02:34:28;;;;;;;77.78;38.70;;;-1.60;99.90;;;;;;5054908;28;20037;-66
2024/01/19 02:36:54;;;;;;;80.72;40.42;;;-1.70;99.90;;;;;;5054806;28;20037;-68
2024/01/19 02:39:19;;;;;;;76.15;40.13;;;-1.70;99.90;;;;;;5054755;28;20057;-67
2024/01/19 02:41:45;;;;;;;81.03;40.35;;;-1.60;99.90;;;;;;5054530;28;20033;-68
2024/01/19 02:44:11;;;;;;;89.53;38.92;;;-1.60;99.90;;;;;;5054479;28;20036;-67
2024/01/19 02:46:38;;;;;;;69.53;37.33;;;-1.60;99.90;;;;;;5054549;28;20542;-68
2024/01/19 02:49:04;;;;;;;80.80;38.13;;;-1.60;99.90;;;;;;5054683;28;20025;-67
2024/01/19 02:51:30;;;;;;;84.72;37.50;;;-1.50;99.90;;;;;;5054547;28;20025;-67
2024/01/19 02:53:55;;;;;;;85.32;36.55;;;-1.50;99.90;;;;;;5054391;28;20028;-68
2024/01/19 02:56:21;;;;;;;77.88;34.90;;;-1.50;99.90;;;;;;5053950;28;20112;-68
2024/01/19 02:58:47;;;;;;;76.95;34.40;;;-1.50;99.90;;;;;;5054288;28;20486;-68
2024/01/19 03:01:12;;;;;;;68.53;32.50;;;-1.50;99.90;;;;;;5054302;28;20035;-68
2024/01/19 03:03:38;;;;;;;68.50;33.03;;;-1.50;99.90;;;;;;5053753;28;20056;-68
2024/01/19 03:06:04;;;;;;;63.03;29.88;;;-1.50;99.90;;;;;;5054278;28;20032;-68
2024/01/19 03:08:29;;;;;;;72.60;30.15;;;-1.60;99.90;;;;;;5054336;28;20502;-68
2024/01/19 03:10:55;;;;;;;65.68;28.88;;;-1.60;99.90;;;;;;5054095;28;20021;-67
2024/01/19 03:13:21;;;;;;;62.95;27.45;;;-1.50;99.90;;;;;;5053609;28;20053;-68
2024/01/19 03:15:46;;;;;;;64.05;28.23;;;-1.60;99.90;;;;;;5053990;28;20055;-68
2024/01/19 03:18:12;;;;;;;62.90;25.90;;;-1.60;99.90;;;;;;5053924;28;20524;-68
2024/01/19 03:20:37;;;;;;;57.70;25.90;;;-1.60;99.90;;;;;;5053956;28;20112;-68
2024/01/19 03:23:03;;;;;;;59.47;25.00;;;-1.60;99.90;;;;;;5053915;28;20087;-68
2024/01/19 03:25:29;;;;;;;58.30;25.08;;;-1.60;99.90;;;;;;5052628;28;20107;-68
2024/01/19 03:27:54;;;;;;;53.33;24.35;;;-1.60;99.90;;;;;;5053362;28;20036;-67
2024/01/19 03:30:20;;;;;;;53.13;24.25;;;-1.60;99.90;;;;;;5053794;28;20025;-68
2024/01/19 03:32:46;;;;;;;50.50;24.17;;;-1.60;99.90;;;;;;5053824;28;20391;-68
2024/01/19 03:35:11;;;;;;;51.47;23.83;;;-1.60;99.90;;;;;;5053815;28;20092;-67
2024/01/19 03:37:37;;;;;;;51.08;23.13;;;-1.50;99.90;;;;;;5053400;28;20110;-68
2024/01/19 03:40:06;;;;;;;53.33;22.85;;;-1.50;99.90;;;;;;5053784;28;20585;-68
2024/01/19 03:42:31;;;;;;;50.55;23.15;;;-1.50;99.90;;;;;;5053197;28;20033;-68
2024/01/19 03:44:57;;;;;;;50.05;22.63;;;-1.50;99.90;;;;;;5053145;28;20029;-67
2024/01/19 03:47:22;;;;;;;56.63;23.75;;;-1.50;99.90;;;;;;5053513;28;20040;-68
2024/01/19 03:49:48;;;;;;;58.30;24.25;;;-1.40;99.90;;;;;;5053448;28;20063;-68
2024/01/19 03:52:13;;;;;;;53.50;24.60;;;-1.50;99.90;;;;;;5053124;28;20035;-68
2024/01/19 03:54:39;;;;;;;56.13;23.77;;;-1.40;99.90;;;;;;5053377;28;20037;-68
2024/01/19 03:57:06;;;;;;;51.92;23.90;;;-1.40;99.90;;;;;;5053426;28;20050;-68
2024/01/19 03:59:32;;;;;;;49.08;24.33;;;-1.30;99.90;;;;;;5053507;28;20033;-68
2024/01/19 04:01:57;;;;;;;52.10;23.02;;;-1.30;99.90;;;;;;5052953;28;20041;-68
2024/01/19 04:04:24;;;;;;;50.65;23.88;;;-1.30;99.90;;;;;;5053052;28;20158;-67
2024/01/19 04:06:50;;;;;;;53.08;24.58;;;-1.30;99.90;;;;;;5052845;28;20508;-68
2024/01/19 04:09:16;;;;;;;49.25;23.02;;;-1.30;99.90;;;;;;5053176;28;20481;-68
2024/01/19 04:11:42;;;;;;;57.45;24.58;;;-1.40;99.90;;;;;;5053278;28;20505;-68
2024/01/19 04:14:08;;;;;;;54.08;24.92;;;-1.40;99.90;;;;;;5053067;28;20021;-68
2024/01/19 04:16:34;;;;;;;57.42;27.08;;;-1.40;99.90;;;;;;5053294;28;20064;-69
2024/01/19 04:18:59;;;;;;;58.28;26.58;;;-1.50;99.90;;;;;;5053245;28;20480;-67
2024/01/19 04:21:25;;;;;;;61.95;28.15;;;-1.50;99.90;;;;;;5053042;28;20033;-68
2024/01/19 04:23:50;;;;;;;68.15;28.45;;;-1.50;99.90;;;;;;5052969;28;20036;-68
2024/01/19 04:26:16;;;;;;;65.97;28.80;;;-1.60;99.90;;;;;;5052963;28;20029;-67
2024/01/19 04:28:41;;;;;;;69.88;30.40;;;-1.60;99.90;;;;;;5053053;28;20116;-67
2024/01/19 04:31:07;;;;;;;58.83;28.65;;;-1.60;99.90;;;;;;5053031;28;20082;-67
2024/01/19 04:33:33;;;;;;;64.03;28.90;;;-1.60;99.90;;;;;;5052770;28;20021;-68
2024/01/19 04:35:58;;;;;;;69.70;30.15;;;-1.60;99.90;;;;;;5053781;28;20025;-67
2024/01/19 04:38:24;;;;;;;65.68;29.67;;;-1.70;99.90;;;;;;5056905;28;20386;-69
2024/01/19 04:40:49;;;;;;;79.07;31.30;;;-1.70;99.90;;;;;;5056983;28;20475;-67
2024/01/19 04:43:15;;;;;;;74.95;32.22;;;-1.70;99.90;;;;;;5056850;28;20048;-68
2024/01/19 04:45:40;;;;;;;78.10;32.40;;;-1.70;99.90;;;;;;5057177;28;20029;-67
2024/01/19 04:48:06;;;;;;;72.53;33.10;;;-1.70;99.90;;;;;;5056897;28;20112;-68
2024/01/19 04:50:32;;;;;;;79.75;33.72;;;-1.60;99.90;;;;;;5056988;28;20025;-68
2024/01/19 04:52:57;;;;;;;84.10;35.20;;;-1.60;99.90;;;;;;5056654;28;20021;-68
2024/01/19 04:55:23;;;;;;;84.47;34.85;;;-1.60;99.90;;;;;;5056742;28;20029;-68
2024/01/19 04:57:48;;;;;;;89.43;35.45;;;-1.60;99.90;;;;;;5056463;28;20076;-67
2024/01/19 05:00:14;;;;;;;86.63;36.55;;;-1.60;99.90;;;;;;5056669;28;20082;-68
2024/01/19 05:02:40;;;;;;;85.70;35.90;;;-1.50;99.90;;;;;;5056307;28;20076;-67
2024/01/19 05:05:06;;;;;;;86.38;37.42;;;-1.50;99.90;;;;;;5056487;28;20029;-68
2024/01/19 05:07:31;;;;;;;85.22;36.13;;;-1.50;99.90;;;;;;5056346;28;20025;-68
2024/01/19 05:09:58;;;;;;;98.35;39.13;;;-1.40;99.90;;;;;;5056425;28;20044;-68
2024/01/19 05:12:23;;;;;;;94.45;38.05;;;-1.40;99.90;;;;;;5056274;28;20044;-67
2024/01/19 05:14:49;;;;;;;100.18;39.92;;;-1.40;99.90;;;;;;5056371;28;20083;-68
2024/01/19 05:17:15;;;;;;;99.00;37.25;;;-1.40;99.90;;;;;;5056016;28;20051;-67
2024/01/19 05:19:40;;;;;;;93.38;37.85;;;-1.40;99.90;;;;;;5056111;28;20037;-68
2024/01/19 05:22:06;;;;;;;105.28;39.53;;;-1.30;99.90;;;;;;5056242;28;20360;-68
2024/01/19 05:24:32;;;;;;;100.38;39.88;;;-1.30;99.90;;;;;;5056132;28;20033;-67
2024/01/19 05:26:58;;;;;;;107.90;40.22;;;-1.30;99.90;;;;;;5056191;28;20141;-68
2024/01/19 05:29:23;;;;;;;133.80;41.30;;;-1.20;99.90;;;;;;5055775;28;20021;-67
2024/01/19 05:31:49;;;;;;;112.97;42.17;;;-1.20;99.90;;;;;;5056135;28;20398;-68
2024/01/19 05:34:15;;;;;;;117.50;42.53;;;-1.20;99.90;;;;;;5056201;28;20108;-68
2024/01/19 05:36:41;;;;;;;114.85;41.40;;;-1.20;99.90;;;;;;5056186;28;20032;-67
2024/01/19 05:39:08;;;;;;;115.15;39.55;;;-1.10;99.90;;;;;;5055717;28;20021;-67
2024/01/19 05:41:34;;;;;;;114.70;40.25;;;-1.10;99.90;;;;;;5056081;28;20074;-67
2024/01/19 05:44:00;;;;;;;119.70;41.58;;;-1.10;99.90;;;;;;5055409;28;20387;-68
2024/01/19 05:46:26;;;;;;;126.18;43.20;;;-1.10;99.90;;;;;;5055935;28;20498;-68
2024/01/19 05:48:51;;;;;;;139.48;44.35;;;-1.00;99.90;;;;;;5055003;28;20130;-68
2024/01/19 05:51:17;;;;;;;136.48;44.20;;;-1.00;99.90;;;;;;5055801;28;20028;-68
2024/01/19 05:53:43;;;;;;;142.95;42.58;;;-1.00;99.90;;;;;;5055784;28;20025;-68
2024/01/19 05:56:09;;;;;;;129.50;42.40;;;-0.90;99.90;;;;;;5055795;28;20547;-68
2024/01/19 05:58:35;;;;;;;126.70;43.55;;;-0.90;99.90;;;;;;5055690;28;20035;-67
2024/01/19 06:01:02;;;;;;;125.03;43.05;;;-0.80;99.90;;;;;;5055642;28;20040;-68
2024/01/19 06:03:29;;;;;;;133.02;43.05;;;-0.80;99.90;;;;;;5054847;28;20052;-68
2024/01/19 06:05:56;;;;;;;142.32;46.05;;;-0.80;99.90;;;;;;5055485;28;20107;-68
2024/01/19 06:08:21;;;;;;;128.43;43.53;;;-0.80;99.90;;;;;;5055516;28;20021;-67
2024/01/19 06:10:47;;;;;;;137.02;42.65;;;-0.80;99.90;;;;;;5055061;28;20021;-67
2024/01/19 06:13:13;;;;;;;139.48;45.67;;;-0.70;99.90;;;;;;5055466;28;20063;-68
2024/01/19 06:15:39;;;;;;;135.38;42.72;;;-0.70;99.90;;;;;;5055411;28;20021;-68
2024/01/19 06:18:04;;;;;;;146.60;48.10;;;-0.70;99.90;;;;;;5055369;28;20041;-68
2024/01/19 06:20:30;;;;;;;138.15;46.13;;;-0.70;99.90;;;;;;5054738;28;20052;-68
2024/01/19 06:22:55;;;;;;;130.05;41.72;;;-0.70;99.90;;;;;;5055103;28;20039;-68
2024/01/19 06:25:21;;;;;;;129.75;41.05;;;-0.60;99.90;;;;;;5054907;28;20479;-68
2024/01/19 06:27:46;;;;;;;138.07;42.60;;;-0.60;99.90;;;;;;5055080;28;20087;-68
2024/01/19 06:30:12;;;;;;;131.73;42.67;;;-0.60;99.90;;;;;;5054716;28;20017;-68
2024/01/19 06:32:38;;;;;;;137.45;44.33;;;-0.60;99.90;;;;;;5054945;28;20025;-68
2024/01/19 06:35:04;;;;;;;135.00;43.78;;;-0.60;99.90;;;;;;5055078;28;20491;-68
2024/01/19 06:37:29;;;;;;;135.38;45.25;;;-0.60;99.90;;;;;;5054866;28;20029;-68
2024/01/19 06:39:55;;;;;;;147.98;46.42;;;-0.50;99.90;;;;;;5054899;28;20059;-68
2024/01/19 06:42:21;;;;;;;146.65;45.40;;;-0.50;99.90;;;;;;5054607;28;20222;-67
2024/01/19 06:44:46;;;;;;;155.60;44.97;;;-0.50;99.90;;;;;;5054275;28;20052;-68
2024/01/19 06:47:12;;;;;;;154.93;47.92;;;-0.50;99.90;;;;;;5054692;28;20544;-68
2024/01/19 06:49:37;;;;;;;146.07;47.47;;;-0.50;99.90;;;;;;5054652;28;20029;-68
2024/01/19 06:52:05;;;;;;;158.77;47.20;;;-0.50;99.90;;;;;;5054626;28;20051;-68
2024/01/19 06:54:32;;;;;;;158.13;48.67;;;-0.50;99.90;;;;;;5054506;28;20033;-68
2024/01/19 06:56:58;;;;;;;157.80;49.17;;;-0.50;99.90;;;;;;5054406;28;20461;-68
2024/01/19 06:59:23;;;;;;;168.00;52.90;;;-0.40;99.90;;;;;;5054398;28;20063;-67
2024/01/19 07:01:49;;;;;;;173.23;52.63;;;-0.40;99.90;;;;;;5053246;28;20067;-68
2024/01/19 07:04:14;;;;;;;181.57;52.28;;;-0.40;99.90;;;;;;5053648;28;20453;-68
2024/01/19 07:06:40;;;;;;;186.02;56.47;;;-0.40;99.90;;;;;;5054054;28;20025;-67
2024/01/19 07:09:06;;;;;;;175.38;54.70;;;-0.40;99.90;;;;;;5054185;28;20025;-67
2024/01/19 07:11:31;;;;;;;182.85;61.60;;;-0.40;99.90;;;;;;5054134;28;20048;-68
2024/01/19 07:13:57;;;;;;;198.88;65.22;;;-0.40;99.90;;;;;;5053824;28;20076;-68
2024/01/19 07:16:23;;;;;;;204.40;66.80;;;-0.40;99.90;;;;;;5053915;28;20033;-68
2024/01/19 07:18:48;;;;;;;228.13;79.05;;;-0.40;99.90;;;;;;5053990;28;20094;-68
2024/01/19 07:21:14;;;;;;;200.73;65.13;;;-0.30;99.90;;;;;;5047177;28;20376;-68
2024/01/19 07:23:39;;;;;;;177.95;58.50;;;-0.30;99.90;;;;;;5040622;28;20525;-67
2024/01/19 07:26:05;;;;;;;197.23;65.50;;;-0.30;99.90;;;;;;5042551;28;20029;-68
2024/01/19 07:28:30;;;;;;;192.40;64.35;;;-0.30;99.90;;;;;;5033797;28;20108;-68
2024/01/19 07:30:56;;;;;;;166.50;53.22;;;-0.20;99.90;;;;;;5050845;28;20390;-68
2024/01/19 07:33:21;;;;;;;165.88;57.15;;;-0.20;99.90;;;;;;5053510;28;20025;-68
2024/01/19 07:35:47;;;;;;;143.27;48.00;;;-0.20;99.90;;;;;;5053628;28;20021;-68
2024/01/19 07:38:12;;;;;;;154.52;48.90;;;-0.20;99.90;;;;;;5053822;28;20021;-67
2024/01/19 07:40:38;;;;;;;142.57;44.50;;;-0.20;99.90;;;;;;5053472;28;20032;-68
2024/01/19 07:43:03;;;;;;;138.45;44.53;;;-0.10;99.90;;;;;;5053753;28;20368;-68
2024/01/19 07:45:29;;;;;;;126.80;43.72;;;-0.10;99.90;;;;;;5052916;28;20021;-67
2024/01/19 07:47:54;;;;;;;131.57;44.22;;;-0.10;99.90;;;;;;5053563;28;20041;-68
2024/01/19 07:50:20;;;;;;;143.45;44.92;;;-0.10;99.90;;;;;;5053341;28;20382;-68
2024/01/19 07:52:45;;;;;;;131.32;43.25;;;-0.10;99.90;;;;;;5053334;28;20487;-68
2024/01/19 07:55:11;;;;;;;131.38;43.55;;;-0.10;99.90;;;;;;5052701;28;20028;-68
2024/01/19 07:57:37;;;;;;;116.82;41.60;;;-0.10;99.90;;;;;;5053027;28;20029;-68
2024/01/19 08:00:03;;;;;;;129.10;43.38;;;0.00;99.90;;;;;;5045957;28;20029;-68
2024/01/19 08:02:29;;;;;;;117.25;41.38;;;0.00;99.90;;;;;;5049853;28;20049;-68
2024/01/19 08:04:54;;;;;;;121.85;42.88;;;0.00;99.90;;;;;;5045020;28;20044;-67
2024/01/19 08:07:20;;;;;;;119.45;42.60;;;0.00;99.90;;;;;;5033286;28;20434;-67
2024/01/19 08:09:45;;;;;;;124.63;44.25;;;0.00;99.90;;;;;;5050552;28;20017;-68
2024/01/19 08:12:11;;;;;;;127.88;44.80;;;0.00;99.90;;;;;;5052178;28;20033;-68
2024/01/19 08:14:36;;;;;;;125.63;42.42;;;0.00;99.90;;;;;;5052699;28;20024;-68
2024/01/19 08:17:02;;;;;;;135.32;44.53;;;0.00;99.90;;;;;;5057238;28;20046;-68
2024/01/19 08:19:28;;;;;;;127.38;42.47;;;0.00;99.90;;;;;;5052176;28;20411;-68
2024/01/19 08:21:53;;;;;;;131.73;45.47;;;0.10;99.90;;;;;;5052511;28;20082;-68
2024/01/19 08:24:19;;;;;;;124.20;44.03;;;0.10;99.90;;;;;;5052796;28;20074;-68
2024/01/19 08:26:44;;;;;;;122.18;43.03;;;0.10;99.90;;;;;;5053141;28;20079;-68
2024/01/19 08:29:10;;;;;;;115.65;42.33;;;0.10;99.90;;;;;;5052004;28;20483;-68
2024/01/19 08:31:36;;;;;;;120.75;42.90;;;0.10;99.90;;;;;;5051811;28;20475;-68
2024/01/19 08:34:01;;;;;;;125.30;42.85;;;0.20;99.90;;;;;;5052044;28;20434;-68
2024/01/19 08:36:27;;;;;;;123.13;44.15;;;0.30;99.90;;;;;;5070595;28;20033;-67
2024/01/19 08:38:53;;;;;;;109.28;42.20;;;0.30;99.90;;;;;;5053444;28;20048;-67
2024/01/19 08:41:19;;;;;;;114.75;41.80;;;0.30;99.90;;;;;;5051961;28;20033;-67
2024/01/19 08:43:45;;;;;;;109.53;41.63;;;0.30;99.90;;;;;;5053673;28;20044;-69
2024/01/19 08:46:10;;;;;;;112.75;41.83;;;0.30;99.90;;;;;;5055438;28;20037;-67
2024/01/19 08:48:36;;;;;;;113.80;39.55;;;0.30;99.90;;;;;;5051375;28;20024;-67
2024/01/19 08:51:02;;;;;;;104.00;38.95;;;0.40;99.90;;;;;;5049987;28;20120;-68
2024/01/19 08:53:28;;;;;;;106.63;40.38;;;0.50;99.90;;;;;;5051342;28;20025;-66
2024/01/19 08:55:54;;;;;;;101.80;39.55;;;0.50;99.90;;;;;;5071844;28;20118;-66
2024/01/19 08:58:20;;;;;;;98.85;40.53;;;0.50;99.90;;;;;;5060742;28;20028;-66
2024/01/19 09:00:45;;;;;;;89.63;37.60;;;0.50;99.90;;;;;;5056465;28;20024;-67
2024/01/19 09:03:11;;;;;;;97.88;40.22;;;0.60;99.90;;;;;;5056673;28;20068;-67
2024/01/19 09:05:36;;;;;;;92.80;38.92;;;0.70;99.90;;;;;;5069810;28;20036;-66
2024/01/19 09:08:02;;;;;;;102.60;40.03;;;0.60;99.90;;;;;;5058538;28;20055;-67
2024/01/19 09:10:29;;;;;;;95.65;38.28;;;0.60;99.90;;;;;;5052645;28;20021;-67
2024/01/19 09:12:55;;;;;;;91.85;38.67;;;0.70;99.90;;;;;;5059551;28;20063;-68
2024/01/19 09:15:21;;;;;;;98.05;38.95;;;0.80;99.90;;;;;;5050827;28;20032;-68
2024/01/19 09:17:47;;;;;;;86.97;37.28;;;0.90;99.90;;;;;;5051246;28;20041;-68
2024/01/19 09:20:13;;;;;;;89.18;35.53;;;0.90;99.90;;;;;;5050307;28;20036;-68
2024/01/19 09:22:38;;;;;;;94.13;39.17;;;0.90;99.90;;;;;;5070666;28;20025;-68
2024/01/19 09:25:05;;;;;;;88.63;36.45;;;0.70;99.90;;;;;;5073912;28;20043;-68
2024/01/19 09:27:30;;;;;;;98.03;41.10;;;0.70;99.90;;;;;;5062363;28;20051;-67
2024/01/19 09:29:56;;;;;;;91.82;38.65;;;0.70;99.90;;;;;;5055781;28;20028;-67
2024/01/19 09:32:21;;;;;;;92.00;37.78;;;0.70;99.90;;;;;;5051596;28;20025;-68
2024/01/19 09:34:47;;;;;;;83.75;36.45;;;0.70;99.90;;;;;;5055433;28;20029;-68
2024/01/19 09:37:12;;;;;;;80.50;37.28;;;0.60;99.90;;;;;;5066921;28;20036;-67
2024/01/19 09:39:38;;;;;;;87.80;36.35;;;0.60;99.90;;;;;;5055509;28;20024;-67
2024/01/19 09:42:09;;;;;;;90.32;38.72;;;0.60;99.90;;;;;;5054750;28;20043;-68
2024/01/19 09:44:36;;;;;;;85.68;38.67;;;0.70;99.90;;;;;;5054929;28;20044;-68
2024/01/19 09:47:19;;;;;;;85.57;40.20;;;0.80;99.90;;;;;;5054613;28;20087;-68
2024/01/19 09:50:03;;;;;;;144.93;61.10;;;0.90;99.90;;;;;;5055797;28;20526;-67
2024/01/19 09:52:59;;;;;;;131.40;57.78;;;1.10;99.90;;;;;;5054029;28;20513;-67
2024/01/19 09:55:27;;;;;;;130.70;56.13;;;1.20;99.90;;;;;;5054010;28;20033;-68
2024/01/19 09:57:53;;;;;;;108.40;44.75;;;1.20;99.90;;;;;;5053218;28;20057;-68
2024/01/19 10:00:19;;;;;;;92.85;40.25;;;1.20;99.90;;;;;;5054813;28;20064;-68
2024/01/19 10:02:47;;;;;;;95.07;41.47;;;1.10;99.90;;;;;;5052538;28;20144;-68
2024/01/19 10:05:14;;;;;;;94.15;39.40;;;1.30;99.90;;;;;;5053734;28;20032;-67
2024/01/19 10:07:42;;;;;;;86.00;37.63;;;1.50;99.90;;;;;;5053552;28;20367;-67
2024/01/19 10:10:09;;;;;;;87.88;38.50;;;1.20;99.90;;;;;;5054750;28;20038;-69
2024/01/19 10:12:37;;;;;;;87.95;38.38;;;1.10;99.90;;;;;;5054492;28;20036;-67
2024/01/19 10:15:04;;;;;;;88.60;37.85;;;1.00;99.90;;;;;;5053311;28;20041;-69
2024/01/19 10:17:30;;;;;;;89.15;37.83;;;1.00;99.90;;;;;;5058597;28;20025;-67
2024/01/19 10:19:58;;;;;;;86.80;38.60;;;1.10;99.90;;;;;;5053886;28;20036;-67
2024/01/19 10:22:26;;;;;;;85.07;36.50;;;1.40;99.90;;;;;;5056318;28;20055;-67
2024/01/19 10:25:10;;;;;;;79.38;36.63;;;1.20;99.90;;;;;;5053832;28;20033;-69
2024/01/19 10:27:40;;;;;;;86.97;37.72;;;1.10;99.90;;;;;;5054359;28;20086;-70
2024/01/19 10:30:09;;;;;;;93.80;36.17;;;1.00;99.90;;;;;;5053579;28;20379;-69
2024/01/19 10:32:36;;;;;;;86.07;38.55;;;0.90;99.90;;;;;;5054498;28;20474;-68
2024/01/19 10:35:05;;;;;;;92.80;40.42;;;0.90;99.90;;;;;;5068316;28;20493;-68
2024/01/19 10:37:31;;;;;;;91.57;41.13;;;1.00;99.90;;;;;;5069037;28;20427;-68
2024/01/19 10:39:56;;;;;;;104.05;44.03;;;1.10;99.90;;;;;;5053391;28;20129;-68
2024/01/19 10:42:22;;;;;;;97.18;41.80;;;1.30;99.90;;;;;;5055359;28;20039;-67
2024/01/19 10:44:47;;;;;;;106.15;43.45;;;1.50;99.90;;;;;;5068506;28;20024;-67
2024/01/19 10:47:14;;;;;;;99.68;42.92;;;1.50;99.90;;;;;;5065704;28;20078;-67
2024/01/19 10:49:40;;;;;;;98.95;43.13;;;1.40;99.90;;;;;;5057848;28;20108;-67
2024/01/19 10:52:05;;;;;;;93.50;40.90;;;1.30;99.90;;;;;;5057748;28;20104;-68
2024/01/19 10:54:31;;;;;;;91.95;41.97;;;1.40;99.90;;;;;;5060800;28;20036;-68
2024/01/19 10:57:05;;;;;;;89.70;40.10;;;1.30;99.90;;;;;;5054063;28;20479;-68
2024/01/19 10:59:31;;;;;;;97.35;40.95;;;1.20;99.90;;;;;;5050487;28;20033;-67
2024/01/19 11:02:01;;;;;;;90.60;40.22;;;1.20;99.90;;;;;;5056402;28;20491;-67
2024/01/19 11:04:27;;;;;;;100.47;42.88;;;1.40;99.90;;;;;;5040561;28;20063;-69
2024/01/19 11:06:52;;;;;;;95.43;40.45;;;1.70;99.90;;;;;;5063362;28;20482;-69
2024/01/19 11:09:18;;;;;;;82.30;36.45;;;2.00;99.90;;;;;;5050475;28;20078;-69
2024/01/19 11:11:50;;;;;;;83.97;38.17;;;2.30;99.50;;;;;;5053332;28;20125;-69
2024/01/19 11:14:18;;;;;;;83.15;36.90;;;2.10;87.30;;;;;;5053584;28;20032;-69
2024/01/19 11:16:47;;;;;;;90.05;37.63;;;1.80;99.50;;;;;;5053662;28;20518;-69
2024/01/19 11:19:15;;;;;;;91.38;37.63;;;1.70;99.90;;;;;;5052882;28;20029;-69
2024/01/19 11:21:42;;;;;;;81.95;35.22;;;1.50;99.90;;;;;;5046427;28;20033;-69
2024/01/19 11:24:09;;;;;;;86.80;38.03;;;1.50;99.90;;;;;;5051710;28;20076;-69
2024/01/19 11:26:40;;;;;;;85.13;36.00;;;1.40;99.90;;;;;;5053360;28;20029;-69
2024/01/19 11:29:18;;;;;;;83.57;34.08;;;1.60;99.90;;;;;;5053356;28;20594;-70
2024/01/19 11:31:44;;;;;;;74.80;33.50;;;1.80;99.90;;;;;;5060517;28;20025;-69
2024/01/19 11:34:47;;;;;;;75.90;35.03;;;2.00;99.90;;;;;;5065567;28;20027;-70
2024/01/19 11:37:48;;;;;;;75.95;32.95;;;2.10;99.90;;;;;;5051040;28;20025;-69
2024/01/19 11:43:05;;;;;;;76.97;32.72;;;2.40;75.50;;;;;;5069368;28;20738;-69
2024/01/19 11:45:40;;;;;;;71.10;30.60;;;2.30;44.40;;;;;;5061310;28;20082;-69
2024/01/19 11:48:06;;;;;;;66.78;30.00;;;2.20;57.60;;;;;;5056692;28;20056;-69
2024/01/19 11:50:47;;;;;;;72.13;31.33;;;2.30;78.20;;;;;;5055463;28;20029;-69
2024/01/19 11:53:14;;;;;;;66.60;31.08;;;2.40;46.90;;;;;;5059302;28;20032;-69
2024/01/19 11:55:41;;;;;;;62.67;29.08;;;2.90;56.80;;;;;;5070367;28;20398;-69
2024/01/19 11:58:27;;;;;;;63.10;28.23;;;;;;;;;;5058298;28;20043;-69
2024/01/19 12:00:55;;;;;;;61.15;27.60;;;2.90;16.50;;;;;;5059652;28;20079;-69
2024/01/19 12:03:20;;;;;;;58.92;26.58;;;2.50;19.70;;;;;;5046397;28;20036;-69
2024/01/19 12:05:48;;;;;;;63.33;27.60;;;2.40;39.60;;;;;;5048120;28;20036;-69
2024/01/19 12:08:14;;;;;;;63.33;27.60;;;2.20;46.70;;;;;;5044397;28;20120;-70
2024/01/19 12:10:39;;;;;;;58.67;27.30;;;2.30;46.10;;;;;;5051721;28;20056;-70
2024/01/19 12:13:05;;;;;;;66.45;29.63;;;2.70;53.80;;;;;;5045086;28;20026;-69
2024/01/19 12:15:30;;;;;;;57.70;26.73;;;2.80;15.10;;;;;;5033025;28;20060;-70
2024/01/19 12:17:56;;;;;;;59.65;27.08;;;2.80;25.30;;;;;;5060829;28;20032;-69
2024/01/19 12:20:23;;;;;;;53.78;24.73;;;2.80;1.30;;;;;;5068400;28;20478;-70
2024/01/19 12:22:53;;;;;;;53.60;25.77;;;2.70;11.00;;;;;;5048265;28;20377;-69
2024/01/19 12:25:20;;;;;;;62.83;27.17;;;2.50;19.40;;;;;;5062944;28;20040;-69
2024/01/19 12:27:47;;;;;;;64.13;27.92;;;2.60;25.10;;;;;;5031705;28;20037;-69